Main page
METAR-TAF:

METAR-TAF

Airports :

Edwards County Airport

Rocksprings, Texas, United States

latitude: 29-56-48N, longitude: 100-10-25W, elevation: 2371 ft

Current weather observation

The report was made 11 minutes ago, at 18:55 UTC
Wind 8 mph from the South/Southeast
Temperature 50°F
Humidity 62%
Pressure 30.34 in. Hg
Visibility: 10 miles
Overcast at a height of 3200 ft

METAR: KECU 211855Z AUTO 15007KT 10SM OVC032 10/03 A3034 RMK AO2

Time: 13:06 (19:06 UTC)


TAF: missing

Weather observations and forecasts of more than 4000 airports (METAR and TAF reports).

The available stations are represented by yellow and red dots on the map.

Hover mouse over dot to see the name of the station.

Then click to see weather observations and forecasts.

To change the map : click on the green buttons with a black cross to zoom in, on the green button with a dash to zoom out, or on the green arrows for adjacent maps.


METAR-TAF: